sensor_id;sensor_type;location;lat;lon;timestamp;P1;durP1;ratioP1;P2;durP2;ratioP2
9836;SDS011;4957;51.412;6.724;2023-01-08T00:00:48;4.53;;;2.90;;
9836;SDS011;4957;51.412;6.724;2023-01-08T00:03:13;5.67;;;3.30;;
9836;SDS011;4957;51.412;6.724;2023-01-08T00:05:39;3.20;;;2.27;;
9836;SDS011;4957;51.412;6.724;2023-01-08T00:08:06;6.10;;;3.27;;
9836;SDS011;4957;51.412;6.724;2023-01-08T00:10:36;2.97;;;2.67;;
9836;SDS011;4957;51.412;6.724;2023-01-08T00:13:03;6.23;;;3.07;;
9836;SDS011;4957;51.412;6.724;2023-01-08T00:15:30;6.60;;;3.00;;
9836;SDS011;4957;51.412;6.724;2023-01-08T00:17:56;10.03;;;3.20;;
9836;SDS011;4957;51.412;6.724;2023-01-08T00:20:22;7.20;;;3.90;;
9836;SDS011;4957;51.412;6.724;2023-01-08T00:22:49;13.33;;;6.97;;
9836;SDS011;4957;51.412;6.724;2023-01-08T00:25:15;16.47;;;6.70;;
9836;SDS011;4957;51.412;6.724;2023-01-08T00:27:41;9.57;;;5.27;;
9836;SDS011;4957;51.412;6.724;2023-01-08T00:30:07;10.80;;;5.77;;
9836;SDS011;4957;51.412;6.724;2023-01-08T00:32:33;6.90;;;4.10;;
9836;SDS011;4957;51.412;6.724;2023-01-08T00:34:59;3.93;;;3.17;;
9836;SDS011;4957;51.412;6.724;2023-01-08T00:37:25;6.33;;;2.63;;
9836;SDS011;4957;51.412;6.724;2023-01-08T00:39:51;3.03;;;2.00;;
9836;SDS011;4957;51.412;6.724;2023-01-08T00:42:17;3.17;;;1.80;;
9836;SDS011;4957;51.412;6.724;2023-01-08T00:44:42;3.63;;;1.60;;
9836;SDS011;4957;51.412;6.724;2023-01-08T00:47:08;1.53;;;1.20;;
9836;SDS011;4957;51.412;6.724;2023-01-08T00:49:34;2.53;;;1.50;;
9836;SDS011;4957;51.412;6.724;2023-01-08T00:52:00;2.07;;;1.47;;
9836;SDS011;4957;51.412;6.724;2023-01-08T00:54:26;1.60;;;1.50;;
9836;SDS011;4957;51.412;6.724;2023-01-08T00:56:53;2.23;;;1.40;;
9836;SDS011;4957;51.412;6.724;2023-01-08T00:59:19;3.10;;;2.10;;
9836;SDS011;4957;51.412;6.724;2023-01-08T01:01:45;5.40;;;2.20;;
9836;SDS011;4957;51.412;6.724;2023-01-08T01:04:11;3.03;;;2.30;;
9836;SDS011;4957;51.412;6.724;2023-01-08T01:06:38;4.37;;;2.63;;
9836;SDS011;4957;51.412;6.724;2023-01-08T01:09:05;4.30;;;2.33;;
9836;SDS011;4957;51.412;6.724;2023-01-08T01:11:30;6.17;;;3.00;;
9836;SDS011;4957;51.412;6.724;2023-01-08T01:13:56;8.47;;;3.07;;
9836;SDS011;4957;51.412;6.724;2023-01-08T01:16:22;6.10;;;3.37;;
9836;SDS011;4957;51.412;6.724;2023-01-08T01:18:48;6.17;;;3.10;;
9836;SDS011;4957;51.412;6.724;2023-01-08T01:21:28;5.57;;;2.60;;
9836;SDS011;4957;51.412;6.724;2023-01-08T01:23:56;3.53;;;2.30;;
9836;SDS011;4957;51.412;6.724;2023-01-08T01:26:24;2.77;;;2.00;;
9836;SDS011;4957;51.412;6.724;2023-01-08T01:28:52;4.63;;;2.10;;
9836;SDS011;4957;51.412;6.724;2023-01-08T01:31:19;4.70;;;1.70;;
9836;SDS011;4957;51.412;6.724;2023-01-08T01:33:46;2.13;;;1.80;;
9836;SDS011;4957;51.412;6.724;2023-01-08T01:36:13;2.30;;;1.70;;
9836;SDS011;4957;51.412;6.724;2023-01-08T01:38:43;2.90;;;2.00;;
9836;SDS011;4957;51.412;6.724;2023-01-08T01:43:57;2.70;;;1.53;;
9836;SDS011;4957;51.412;6.724;2023-01-08T01:46:26;2.33;;;1.80;;
9836;SDS011;4957;51.412;6.724;2023-01-08T01:49:01;2.17;;;1.40;;
9836;SDS011;4957;51.412;6.724;2023-01-08T01:51:31;2.40;;;1.37;;
9836;SDS011;4957;51.412;6.724;2023-01-08T01:53:59;3.00;;;1.83;;
9836;SDS011;4957;51.412;6.724;2023-01-08T01:56:28;2.10;;;1.40;;
9836;SDS011;4957;51.412;6.724;2023-01-08T01:58:54;1.47;;;1.37;;
9836;SDS011;4957;51.412;6.724;2023-01-08T02:01:20;2.13;;;1.43;;
9836;SDS011;4957;51.412;6.724;2023-01-08T02:03:46;1.73;;;1.37;;
9836;SDS011;4957;51.412;6.724;2023-01-08T02:14:21;4.10;;;1.47;;
9836;SDS011;4957;51.412;6.724;2023-01-08T02:17:00;2.23;;;1.50;;
9836;SDS011;4957;51.412;6.724;2023-01-08T02:27:25;2.27;;;1.57;;
9836;SDS011;4957;51.412;6.724;2023-01-08T02:29:53;7.90;;;1.90;;
9836;SDS011;4957;51.412;6.724;2023-01-08T02:32:27;2.87;;;1.70;;
9836;SDS011;4957;51.412;6.724;2023-01-08T02:34:58;2.40;;;1.70;;
9836;SDS011;4957;51.412;6.724;2023-01-08T02:37:24;3.13;;;1.97;;
9836;SDS011;4957;51.412;6.724;2023-01-08T02:39:55;5.17;;;1.93;;
9836;SDS011;4957;51.412;6.724;2023-01-08T02:45:20;2.23;;;1.90;;
9836;SDS011;4957;51.412;6.724;2023-01-08T02:56:27;5.20;;;2.20;;
9836;SDS011;4957;51.412;6.724;2023-01-08T02:58:56;3.47;;;2.30;;
9836;SDS011;4957;51.412;6.724;2023-01-08T03:01:23;4.93;;;2.17;;
9836;SDS011;4957;51.412;6.724;2023-01-08T03:03:52;3.27;;;1.93;;
9836;SDS011;4957;51.412;6.724;2023-01-08T03:06:21;4.90;;;2.20;;
9836;SDS011;4957;51.412;6.724;2023-01-08T03:08:47;4.13;;;1.90;;
9836;SDS011;4957;51.412;6.724;2023-01-08T03:11:19;2.90;;;2.07;;
9836;SDS011;4957;51.412;6.724;2023-01-08T03:16:40;5.10;;;2.40;;
9836;SDS011;4957;51.412;6.724;2023-01-08T03:19:13;3.00;;;2.10;;
9836;SDS011;4957;51.412;6.724;2023-01-08T03:21:44;4.33;;;2.27;;
9836;SDS011;4957;51.412;6.724;2023-01-08T03:24:13;3.47;;;1.87;;
9836;SDS011;4957;51.412;6.724;2023-01-08T03:26:41;2.83;;;2.20;;
9836;SDS011;4957;51.412;6.724;2023-01-08T03:29:10;2.67;;;2.13;;
9836;SDS011;4957;51.412;6.724;2023-01-08T03:31:39;2.23;;;2.03;;
9836;SDS011;4957;51.412;6.724;2023-01-08T03:34:06;2.37;;;1.83;;
9836;SDS011;4957;51.412;6.724;2023-01-08T03:36:33;3.47;;;2.40;;
9836;SDS011;4957;51.412;6.724;2023-01-08T03:39:07;2.93;;;2.30;;
9836;SDS011;4957;51.412;6.724;2023-01-08T03:41:40;5.07;;;2.00;;
9836;SDS011;4957;51.412;6.724;2023-01-08T03:44:06;4.07;;;2.03;;
9836;SDS011;4957;51.412;6.724;2023-01-08T03:46:33;5.53;;;2.23;;
9836;SDS011;4957;51.412;6.724;2023-01-08T03:49:02;4.97;;;2.40;;
9836;SDS011;4957;51.412;6.724;2023-01-08T03:51:44;3.10;;;2.20;;
9836;SDS011;4957;51.412;6.724;2023-01-08T03:54:19;3.50;;;1.97;;
9836;SDS011;4957;51.412;6.724;2023-01-08T03:56:47;2.67;;;1.97;;
9836;SDS011;4957;51.412;6.724;2023-01-08T03:59:13;2.47;;;2.10;;
9836;SDS011;4957;51.412;6.724;2023-01-08T04:01:39;3.57;;;1.63;;
9836;SDS011;4957;51.412;6.724;2023-01-08T04:04:06;2.60;;;2.37;;
9836;SDS011;4957;51.412;6.724;2023-01-08T04:06:32;2.63;;;1.90;;
9836;SDS011;4957;51.412;6.724;2023-01-08T04:08:57;2.97;;;1.93;;
9836;SDS011;4957;51.412;6.724;2023-01-08T04:11:23;4.10;;;2.50;;
9836;SDS011;4957;51.412;6.724;2023-01-08T04:13:49;4.90;;;2.10;;
9836;SDS011;4957;51.412;6.724;2023-01-08T04:16:15;4.57;;;2.20;;
9836;SDS011;4957;51.412;6.724;2023-01-08T04:18:40;2.60;;;2.10;;
9836;SDS011;4957;51.412;6.724;2023-01-08T04:21:06;1.90;;;1.80;;
9836;SDS011;4957;51.412;6.724;2023-01-08T04:23:32;2.53;;;2.10;;
9836;SDS011;4957;51.412;6.724;2023-01-08T04:25:58;2.40;;;1.93;;
9836;SDS011;4957;51.412;6.724;2023-01-08T04:28:23;3.37;;;2.27;;
9836;SDS011;4957;51.412;6.724;2023-01-08T04:30:49;3.03;;;2.10;;
9836;SDS011;4957;51.412;6.724;2023-01-08T04:33:15;3.27;;;2.10;;
9836;SDS011;4957;51.412;6.724;2023-01-08T04:35:41;3.23;;;2.27;;
9836;SDS011;4957;51.412;6.724;2023-01-08T04:38:07;3.20;;;2.67;;
9836;SDS011;4957;51.412;6.724;2023-01-08T04:40:33;2.33;;;1.90;;
9836;SDS011;4957;51.412;6.724;2023-01-08T04:42:59;2.27;;;1.73;;
9836;SDS011;4957;51.412;6.724;2023-01-08T04:45:24;3.23;;;2.00;;
9836;SDS011;4957;51.412;6.724;2023-01-08T04:47:56;1.97;;;1.80;;
9836;SDS011;4957;51.412;6.724;2023-01-08T04:50:23;1.83;;;1.70;;
9836;SDS011;4957;51.412;6.724;2023-01-08T04:52:49;3.03;;;1.90;;
9836;SDS011;4957;51.412;6.724;2023-01-08T04:55:15;4.53;;;2.23;;
9836;SDS011;4957;51.412;6.724;2023-01-08T04:57:41;2.30;;;1.50;;
9836;SDS011;4957;51.412;6.724;2023-01-08T05:00:06;2.40;;;1.93;;
9836;SDS011;4957;51.412;6.724;2023-01-08T05:02:33;1.73;;;1.63;;
9836;SDS011;4957;51.412;6.724;2023-01-08T05:04:58;2.00;;;1.40;;
9836;SDS011;4957;51.412;6.724;2023-01-08T05:07:24;2.53;;;1.80;;
9836;SDS011;4957;51.412;6.724;2023-01-08T05:09:50;3.00;;;1.63;;
9836;SDS011;4957;51.412;6.724;2023-01-08T05:12:16;2.47;;;1.67;;
9836;SDS011;4957;51.412;6.724;2023-01-08T05:14:41;2.90;;;1.90;;
9836;SDS011;4957;51.412;6.724;2023-01-08T05:17:07;6.23;;;3.33;;
9836;SDS011;4957;51.412;6.724;2023-01-08T05:19:33;13.30;;;4.93;;
9836;SDS011;4957;51.412;6.724;2023-01-08T05:21:58;9.73;;;4.80;;
9836;SDS011;4957;51.412;6.724;2023-01-08T05:24:24;9.93;;;4.67;;
9836;SDS011;4957;51.412;6.724;2023-01-08T05:26:50;10.80;;;4.57;;
9836;SDS011;4957;51.412;6.724;2023-01-08T05:29:15;11.93;;;4.33;;
9836;SDS011;4957;51.412;6.724;2023-01-08T05:31:41;7.47;;;3.63;;
9836;SDS011;4957;51.412;6.724;2023-01-08T05:34:07;11.37;;;4.60;;
9836;SDS011;4957;51.412;6.724;2023-01-08T05:36:33;3.67;;;2.30;;
9836;SDS011;4957;51.412;6.724;2023-01-08T05:38:58;4.03;;;2.57;;
9836;SDS011;4957;51.412;6.724;2023-01-08T05:41:24;4.77;;;2.50;;
9836;SDS011;4957;51.412;6.724;2023-01-08T05:43:50;6.97;;;2.87;;
9836;SDS011;4957;51.412;6.724;2023-01-08T05:46:15;5.93;;;2.80;;
9836;SDS011;4957;51.412;6.724;2023-01-08T05:48:41;6.10;;;3.27;;
9836;SDS011;4957;51.412;6.724;2023-01-08T05:51:07;8.30;;;3.47;;
9836;SDS011;4957;51.412;6.724;2023-01-08T05:53:32;9.23;;;3.40;;
9836;SDS011;4957;51.412;6.724;2023-01-08T05:55:59;8.00;;;3.63;;
9836;SDS011;4957;51.412;6.724;2023-01-08T05:58:29;9.97;;;3.33;;
9836;SDS011;4957;51.412;6.724;2023-01-08T06:00:59;6.73;;;3.97;;
9836;SDS011;4957;51.412;6.724;2023-01-08T06:03:27;5.90;;;3.57;;
9836;SDS011;4957;51.412;6.724;2023-01-08T06:05:56;9.73;;;2.97;;
9836;SDS011;4957;51.412;6.724;2023-01-08T06:08:23;6.83;;;2.70;;
9836;SDS011;4957;51.412;6.724;2023-01-08T06:10:48;6.43;;;2.60;;
9836;SDS011;4957;51.412;6.724;2023-01-08T06:13:14;4.00;;;1.80;;
9836;SDS011;4957;51.412;6.724;2023-01-08T06:15:39;6.77;;;1.63;;
9836;SDS011;4957;51.412;6.724;2023-01-08T06:18:05;5.27;;;1.30;;
9836;SDS011;4957;51.412;6.724;2023-01-08T06:20:31;2.90;;;1.37;;
9836;SDS011;4957;51.412;6.724;2023-01-08T06:22:57;2.50;;;1.00;;
9836;SDS011;4957;51.412;6.724;2023-01-08T06:25:22;2.77;;;1.27;;
9836;SDS011;4957;51.412;6.724;2023-01-08T06:27:51;1.67;;;1.40;;
9836;SDS011;4957;51.412;6.724;2023-01-08T06:30:17;1.37;;;1.07;;
9836;SDS011;4957;51.412;6.724;2023-01-08T06:32:43;0.97;;;0.70;;
9836;SDS011;4957;51.412;6.724;2023-01-08T06:35:09;2.63;;;0.80;;
9836;SDS011;4957;51.412;6.724;2023-01-08T06:37:35;1.67;;;0.70;;
9836;SDS011;4957;51.412;6.724;2023-01-08T06:40:01;2.83;;;0.90;;
9836;SDS011;4957;51.412;6.724;2023-01-08T06:42:26;5.80;;;0.80;;
9836;SDS011;4957;51.412;6.724;2023-01-08T06:44:52;1.93;;;0.70;;
9836;SDS011;4957;51.412;6.724;2023-01-08T06:47:18;2.33;;;0.90;;
9836;SDS011;4957;51.412;6.724;2023-01-08T06:49:43;2.10;;;0.50;;
9836;SDS011;4957;51.412;6.724;2023-01-08T06:52:09;3.90;;;1.17;;
9836;SDS011;4957;51.412;6.724;2023-01-08T06:54:35;1.57;;;0.93;;
9836;SDS011;4957;51.412;6.724;2023-01-08T06:57:01;1.90;;;0.70;;
9836;SDS011;4957;51.412;6.724;2023-01-08T06:59:26;1.47;;;0.70;;
9836;SDS011;4957;51.412;6.724;2023-01-08T07:01:52;3.10;;;1.13;;
9836;SDS011;4957;51.412;6.724;2023-01-08T07:04:18;1.30;;;0.93;;
9836;SDS011;4957;51.412;6.724;2023-01-08T07:06:44;2.07;;;1.00;;
9836;SDS011;4957;51.412;6.724;2023-01-08T07:09:13;1.13;;;0.80;;
9836;SDS011;4957;51.412;6.724;2023-01-08T07:11:42;4.10;;;1.77;;
9836;SDS011;4957;51.412;6.724;2023-01-08T07:14:07;3.87;;;0.77;;
9836;SDS011;4957;51.412;6.724;2023-01-08T07:16:33;2.50;;;1.00;;
9836;SDS011;4957;51.412;6.724;2023-01-08T07:18:59;1.63;;;0.60;;
9836;SDS011;4957;51.412;6.724;2023-01-08T07:21:25;2.37;;;0.80;;
9836;SDS011;4957;51.412;6.724;2023-01-08T07:23:51;2.00;;;0.70;;
9836;SDS011;4957;51.412;6.724;2023-01-08T07:26:16;2.47;;;0.70;;
9836;SDS011;4957;51.412;6.724;2023-01-08T07:28:42;0.80;;;0.80;;
9836;SDS011;4957;51.412;6.724;2023-01-08T07:31:08;2.53;;;1.10;;
9836;SDS011;4957;51.412;6.724;2023-01-08T07:33:34;6.67;;;1.10;;
9836;SDS011;4957;51.412;6.724;2023-01-08T07:36:00;4.20;;;1.30;;
9836;SDS011;4957;51.412;6.724;2023-01-08T07:38:26;3.33;;;1.07;;
9836;SDS011;4957;51.412;6.724;2023-01-08T07:40:52;5.33;;;1.07;;
9836;SDS011;4957;51.412;6.724;2023-01-08T07:43:18;3.40;;;1.30;;
9836;SDS011;4957;51.412;6.724;2023-01-08T07:45:44;5.97;;;1.60;;
9836;SDS011;4957;51.412;6.724;2023-01-08T07:48:09;1.47;;;1.10;;
9836;SDS011;4957;51.412;6.724;2023-01-08T07:50:39;4.03;;;1.70;;
9836;SDS011;4957;51.412;6.724;2023-01-08T07:53:06;7.90;;;1.73;;
9836;SDS011;4957;51.412;6.724;2023-01-08T07:55:32;7.10;;;2.00;;
9836;SDS011;4957;51.412;6.724;2023-01-08T07:57:58;8.57;;;3.60;;
9836;SDS011;4957;51.412;6.724;2023-01-08T08:00:23;9.20;;;3.03;;
9836;SDS011;4957;51.412;6.724;2023-01-08T08:02:49;10.10;;;3.87;;
9836;SDS011;4957;51.412;6.724;2023-01-08T08:05:15;8.60;;;3.43;;
9836;SDS011;4957;51.412;6.724;2023-01-08T08:07:42;11.83;;;3.67;;
9836;SDS011;4957;51.412;6.724;2023-01-08T08:10:08;8.33;;;3.00;;
9836;SDS011;4957;51.412;6.724;2023-01-08T08:12:35;9.83;;;3.90;;
9836;SDS011;4957;51.412;6.724;2023-01-08T08:15:01;12.67;;;4.60;;
9836;SDS011;4957;51.412;6.724;2023-01-08T08:17:27;13.87;;;4.03;;
9836;SDS011;4957;51.412;6.724;2023-01-08T08:19:53;9.00;;;3.43;;
9836;SDS011;4957;51.412;6.724;2023-01-08T08:22:18;11.73;;;4.10;;
9836;SDS011;4957;51.412;6.724;2023-01-08T08:24:44;7.67;;;3.07;;
9836;SDS011;4957;51.412;6.724;2023-01-08T08:27:10;9.57;;;2.90;;
9836;SDS011;4957;51.412;6.724;2023-01-08T08:29:35;7.60;;;2.93;;
9836;SDS011;4957;51.412;6.724;2023-01-08T08:32:01;7.60;;;3.00;;
9836;SDS011;4957;51.412;6.724;2023-01-08T08:34:26;9.10;;;3.03;;
9836;SDS011;4957;51.412;6.724;2023-01-08T08:36:52;11.50;;;3.30;;
9836;SDS011;4957;51.412;6.724;2023-01-08T08:39:18;7.43;;;3.17;;
9836;SDS011;4957;51.412;6.724;2023-01-08T08:41:44;11.27;;;3.03;;
9836;SDS011;4957;51.412;6.724;2023-01-08T08:44:09;11.90;;;3.47;;
9836;SDS011;4957;51.412;6.724;2023-01-08T08:46:35;11.27;;;3.80;;
9836;SDS011;4957;51.412;6.724;2023-01-08T08:49:01;11.73;;;4.13;;
9836;SDS011;4957;51.412;6.724;2023-01-08T08:51:26;21.80;;;5.00;;
9836;SDS011;4957;51.412;6.724;2023-01-08T08:53:52;15.43;;;4.60;;
9836;SDS011;4957;51.412;6.724;2023-01-08T08:56:18;16.57;;;4.57;;
9836;SDS011;4957;51.412;6.724;2023-01-08T08:58:43;17.40;;;4.90;;
9836;SDS011;4957;51.412;6.724;2023-01-08T09:01:09;13.67;;;4.23;;
9836;SDS011;4957;51.412;6.724;2023-01-08T09:03:35;12.97;;;3.40;;
9836;SDS011;4957;51.412;6.724;2023-01-08T09:06:01;14.57;;;3.23;;
9836;SDS011;4957;51.412;6.724;2023-01-08T09:08:27;11.73;;;3.70;;
9836;SDS011;4957;51.412;6.724;2023-01-08T09:10:53;8.57;;;2.80;;
9836;SDS011;4957;51.412;6.724;2023-01-08T09:13:19;8.63;;;3.17;;
9836;SDS011;4957;51.412;6.724;2023-01-08T09:15:44;14.27;;;3.10;;
9836;SDS011;4957;51.412;6.724;2023-01-08T09:18:10;11.17;;;2.90;;
9836;SDS011;4957;51.412;6.724;2023-01-08T09:20:36;13.57;;;3.30;;
9836;SDS011;4957;51.412;6.724;2023-01-08T09:23:01;10.57;;;3.00;;
9836;SDS011;4957;51.412;6.724;2023-01-08T09:25:28;9.00;;;3.03;;
9836;SDS011;4957;51.412;6.724;2023-01-08T09:28:02;13.17;;;3.00;;
9836;SDS011;4957;51.412;6.724;2023-01-08T09:30:30;15.50;;;2.83;;
9836;SDS011;4957;51.412;6.724;2023-01-08T09:32:57;13.70;;;2.83;;
9836;SDS011;4957;51.412;6.724;2023-01-08T09:35:23;16.43;;;2.73;;
9836;SDS011;4957;51.412;6.724;2023-01-08T09:37:50;13.80;;;2.83;;
9836;SDS011;4957;51.412;6.724;2023-01-08T09:40:16;9.27;;;3.83;;
9836;SDS011;4957;51.412;6.724;2023-01-08T09:42:42;10.50;;;3.93;;
9836;SDS011;4957;51.412;6.724;2023-01-08T09:45:12;12.77;;;3.90;;
9836;SDS011;4957;51.412;6.724;2023-01-08T09:47:46;12.90;;;3.77;;
9836;SDS011;4957;51.412;6.724;2023-01-08T09:50:12;16.13;;;4.00;;
9836;SDS011;4957;51.412;6.724;2023-01-08T09:52:39;10.23;;;3.70;;
9836;SDS011;4957;51.412;6.724;2023-01-08T09:55:11;11.20;;;3.77;;
9836;SDS011;4957;51.412;6.724;2023-01-08T09:57:38;13.23;;;3.90;;
9836;SDS011;4957;51.412;6.724;2023-01-08T10:00:05;9.67;;;2.67;;
9836;SDS011;4957;51.412;6.724;2023-01-08T10:02:47;9.30;;;2.37;;
9836;SDS011;4957;51.412;6.724;2023-01-08T10:05:14;7.30;;;1.73;;
9836;SDS011;4957;51.412;6.724;2023-01-08T10:07:42;9.37;;;2.07;;
9836;SDS011;4957;51.412;6.724;2023-01-08T10:10:16;3.73;;;1.33;;
9836;SDS011;4957;51.412;6.724;2023-01-08T10:12:48;13.20;;;2.00;;
9836;SDS011;4957;51.412;6.724;2023-01-08T10:15:15;6.37;;;1.70;;
9836;SDS011;4957;51.412;6.724;2023-01-08T10:20:29;4.77;;;1.47;;
9836;SDS011;4957;51.412;6.724;2023-01-08T10:22:55;8.10;;;2.10;;
9836;SDS011;4957;51.412;6.724;2023-01-08T10:25:32;5.37;;;2.07;;
9836;SDS011;4957;51.412;6.724;2023-01-08T10:27:58;8.37;;;1.90;;
9836;SDS011;4957;51.412;6.724;2023-01-08T10:33:05;5.93;;;1.67;;
9836;SDS011;4957;51.412;6.724;2023-01-08T10:35:39;5.43;;;1.87;;
9836;SDS011;4957;51.412;6.724;2023-01-08T10:38:06;3.23;;;1.50;;
9836;SDS011;4957;51.412;6.724;2023-01-08T10:40:49;3.70;;;1.60;;
9836;SDS011;4957;51.412;6.724;2023-01-08T10:43:17;5.43;;;1.70;;
9836;SDS011;4957;51.412;6.724;2023-01-08T10:45:58;10.20;;;1.80;;
9836;SDS011;4957;51.412;6.724;2023-01-08T10:48:33;8.00;;;1.63;;
9836;SDS011;4957;51.412;6.724;2023-01-08T10:51:06;3.07;;;1.80;;
9836;SDS011;4957;51.412;6.724;2023-01-08T10:53:40;3.93;;;1.50;;
9836;SDS011;4957;51.412;6.724;2023-01-08T10:56:14;6.77;;;1.83;;
9836;SDS011;4957;51.412;6.724;2023-01-08T10:58:51;3.07;;;1.20;;
9836;SDS011;4957;51.412;6.724;2023-01-08T11:01:27;4.77;;;1.30;;
9836;SDS011;4957;51.412;6.724;2023-01-08T11:03:55;3.97;;;1.27;;
9836;SDS011;4957;51.412;6.724;2023-01-08T11:06:27;2.47;;;1.20;;
9836;SDS011;4957;51.412;6.724;2023-01-08T11:08:59;6.27;;;1.40;;
9836;SDS011;4957;51.412;6.724;2023-01-08T11:11:36;2.73;;;1.03;;
9836;SDS011;4957;51.412;6.724;2023-01-08T11:14:03;2.60;;;1.03;;
9836;SDS011;4957;51.412;6.724;2023-01-08T11:16:33;2.73;;;0.90;;
9836;SDS011;4957;51.412;6.724;2023-01-08T11:19:01;1.47;;;0.77;;
9836;SDS011;4957;51.412;6.724;2023-01-08T11:21:28;4.07;;;1.10;;
9836;SDS011;4957;51.412;6.724;2023-01-08T11:29:43;3.07;;;1.63;;
9836;SDS011;4957;51.412;6.724;2023-01-08T11:35:14;4.27;;;1.17;;
9836;SDS011;4957;51.412;6.724;2023-01-08T11:37:53;4.33;;;0.90;;
9836;SDS011;4957;51.412;6.724;2023-01-08T11:57:20;5.53;;;1.97;;
9836;SDS011;4957;51.412;6.724;2023-01-08T12:00:02;6.40;;;1.60;;
9836;SDS011;4957;51.412;6.724;2023-01-08T12:02:50;11.17;;;1.83;;
9836;SDS011;4957;51.412;6.724;2023-01-08T12:06:03;0.70;;;0.70;;
9836;SDS011;4957;51.412;6.724;2023-01-08T12:16:36;3.70;;;0.70;;
9836;SDS011;4957;51.412;6.724;2023-01-08T12:22:33;0.50;;;0.50;;
9836;SDS011;4957;51.412;6.724;2023-01-08T12:25:19;0.93;;;0.60;;
9836;SDS011;4957;51.412;6.724;2023-01-08T12:27:57;0.37;;;0.37;;
9836;SDS011;4957;51.412;6.724;2023-01-08T12:33:43;0.40;;;0.40;;
9836;SDS011;4957;51.412;6.724;2023-01-08T12:36:22;0.80;;;0.43;;
9836;SDS011;4957;51.412;6.724;2023-01-08T12:38:58;5.13;;;0.90;;
9836;SDS011;4957;51.412;6.724;2023-01-08T12:41:39;0.97;;;0.70;;
9836;SDS011;4957;51.412;6.724;2023-01-08T12:44:09;2.27;;;0.93;;
9836;SDS011;4957;51.412;6.724;2023-01-08T12:46:42;1.83;;;0.60;;
9836;SDS011;4957;51.412;6.724;2023-01-08T12:49:12;0.93;;;0.50;;
9836;SDS011;4957;51.412;6.724;2023-01-08T12:54:46;1.63;;;0.60;;
9836;SDS011;4957;51.412;6.724;2023-01-08T12:57:24;0.70;;;0.63;;
9836;SDS011;4957;51.412;6.724;2023-01-08T13:02:58;2.87;;;0.50;;
9836;SDS011;4957;51.412;6.724;2023-01-08T13:05:28;1.20;;;0.77;;
9836;SDS011;4957;51.412;6.724;2023-01-08T13:08:19;3.87;;;1.20;;
9836;SDS011;4957;51.412;6.724;2023-01-08T13:10:56;2.70;;;0.90;;
9836;SDS011;4957;51.412;6.724;2023-01-08T13:13:29;5.07;;;1.40;;
9836;SDS011;4957;51.412;6.724;2023-01-08T13:16:06;2.93;;;0.90;;
9836;SDS011;4957;51.412;6.724;2023-01-08T13:18:38;2.13;;;0.83;;
9836;SDS011;4957;51.412;6.724;2023-01-08T13:21:08;0.93;;;0.80;;
9836;SDS011;4957;51.412;6.724;2023-01-08T13:23:39;2.90;;;0.90;;
9836;SDS011;4957;51.412;6.724;2023-01-08T13:26:29;2.30;;;0.70;;
9836;SDS011;4957;51.412;6.724;2023-01-08T13:29:25;2.83;;;0.80;;
9836;SDS011;4957;51.412;6.724;2023-01-08T13:31:57;2.30;;;0.80;;
9836;SDS011;4957;51.412;6.724;2023-01-08T13:34:39;1.70;;;0.80;;
9836;SDS011;4957;51.412;6.724;2023-01-08T13:37:06;2.93;;;0.60;;
9836;SDS011;4957;51.412;6.724;2023-01-08T13:39:53;0.57;;;0.53;;
9836;SDS011;4957;51.412;6.724;2023-01-08T13:42:31;2.30;;;0.80;;
9836;SDS011;4957;51.412;6.724;2023-01-08T13:44:59;2.63;;;1.27;;
9836;SDS011;4957;51.412;6.724;2023-01-08T13:47:28;2.73;;;1.73;;
9836;SDS011;4957;51.412;6.724;2023-01-08T13:50:04;2.40;;;1.23;;
9836;SDS011;4957;51.412;6.724;2023-01-08T13:52:47;2.83;;;1.53;;
9836;SDS011;4957;51.412;6.724;2023-01-08T13:55:40;1.10;;;0.93;;
9836;SDS011;4957;51.412;6.724;2023-01-08T13:58:21;2.87;;;0.93;;
9836;SDS011;4957;51.412;6.724;2023-01-08T14:00:53;1.33;;;0.60;;
9836;SDS011;4957;51.412;6.724;2023-01-08T14:11:46;1.50;;;1.00;;
9836;SDS011;4957;51.412;6.724;2023-01-08T14:14:15;2.93;;;1.80;;
9836;SDS011;4957;51.412;6.724;2023-01-08T14:16:43;5.43;;;2.30;;
9836;SDS011;4957;51.412;6.724;2023-01-08T14:19:14;2.47;;;1.50;;
9836;SDS011;4957;51.412;6.724;2023-01-08T14:21:49;0.97;;;0.97;;
9836;SDS011;4957;51.412;6.724;2023-01-08T14:24:24;2.00;;;0.80;;
9836;SDS011;4957;51.412;6.724;2023-01-08T14:26:51;1.30;;;0.90;;
9836;SDS011;4957;51.412;6.724;2023-01-08T14:29:27;1.23;;;0.90;;
9836;SDS011;4957;51.412;6.724;2023-01-08T14:32:00;5.80;;;1.77;;
9836;SDS011;4957;51.412;6.724;2023-01-08T14:35:03;1.40;;;0.80;;
9836;SDS011;4957;51.412;6.724;2023-01-08T14:38:23;3.93;;;1.90;;
9836;SDS011;4957;51.412;6.724;2023-01-08T14:46:26;1.43;;;1.17;;
9836;SDS011;4957;51.412;6.724;2023-01-08T14:55:43;3.07;;;1.00;;
9836;SDS011;4957;51.412;6.724;2023-01-08T14:58:47;4.10;;;1.13;;
9836;SDS011;4957;51.412;6.724;2023-01-08T15:01:56;1.43;;;0.73;;
9836;SDS011;4957;51.412;6.724;2023-01-08T15:05:15;2.90;;;1.20;;
9836;SDS011;4957;51.412;6.724;2023-01-08T15:11:09;1.23;;;1.13;;
9836;SDS011;4957;51.412;6.724;2023-01-08T15:13:44;3.03;;;1.50;;
9836;SDS011;4957;51.412;6.724;2023-01-08T15:17:02;1.93;;;1.10;;
9836;SDS011;4957;51.412;6.724;2023-01-08T15:19:49;2.30;;;1.03;;
9836;SDS011;4957;51.412;6.724;2023-01-08T15:22:27;0.80;;;0.80;;
9836;SDS011;4957;51.412;6.724;2023-01-08T15:27:59;2.90;;;0.77;;
9836;SDS011;4957;51.412;6.724;2023-01-08T15:31:04;2.80;;;1.00;;
9836;SDS011;4957;51.412;6.724;2023-01-08T15:37:12;2.20;;;1.37;;
9836;SDS011;4957;51.412;6.724;2023-01-08T15:39:39;2.57;;;1.43;;
9836;SDS011;4957;51.412;6.724;2023-01-08T15:48:21;2.67;;;1.70;;
9836;SDS011;4957;51.412;6.724;2023-01-08T15:50:50;3.50;;;1.67;;
9836;SDS011;4957;51.412;6.724;2023-01-08T15:53:40;6.23;;;1.47;;
9836;SDS011;4957;51.412;6.724;2023-01-08T15:59:36;1.63;;;1.30;;
9836;SDS011;4957;51.412;6.724;2023-01-08T16:02:14;5.70;;;1.67;;
9836;SDS011;4957;51.412;6.724;2023-01-08T16:05:18;2.67;;;1.30;;
9836;SDS011;4957;51.412;6.724;2023-01-08T16:08:14;2.50;;;1.30;;
9836;SDS011;4957;51.412;6.724;2023-01-08T16:11:00;4.33;;;1.60;;
9836;SDS011;4957;51.412;6.724;2023-01-08T16:13:30;4.47;;;1.40;;
9836;SDS011;4957;51.412;6.724;2023-01-08T16:18:48;2.30;;;1.30;;
9836;SDS011;4957;51.412;6.724;2023-01-08T16:21:20;6.20;;;2.10;;
9836;SDS011;4957;51.412;6.724;2023-01-08T16:23:48;4.13;;;2.03;;
9836;SDS011;4957;51.412;6.724;2023-01-08T16:27:05;3.80;;;2.23;;
9836;SDS011;4957;51.412;6.724;2023-01-08T16:29:35;5.20;;;1.90;;
9836;SDS011;4957;51.412;6.724;2023-01-08T16:32:03;5.70;;;2.13;;
9836;SDS011;4957;51.412;6.724;2023-01-08T16:38:04;6.97;;;2.43;;
9836;SDS011;4957;51.412;6.724;2023-01-08T16:40:35;7.80;;;3.03;;
9836;SDS011;4957;51.412;6.724;2023-01-08T16:43:15;8.63;;;3.57;;
9836;SDS011;4957;51.412;6.724;2023-01-08T16:45:46;7.83;;;3.10;;
9836;SDS011;4957;51.412;6.724;2023-01-08T16:48:27;8.80;;;2.53;;
9836;SDS011;4957;51.412;6.724;2023-01-08T16:56:55;4.93;;;1.50;;
9836;SDS011;4957;51.412;6.724;2023-01-08T17:02:26;4.50;;;1.40;;
9836;SDS011;4957;51.412;6.724;2023-01-08T17:04:55;3.60;;;1.80;;
9836;SDS011;4957;51.412;6.724;2023-01-08T17:07:33;1.90;;;1.47;;
9836;SDS011;4957;51.412;6.724;2023-01-08T17:10:08;3.20;;;1.70;;
9836;SDS011;4957;51.412;6.724;2023-01-08T17:15:49;7.67;;;3.00;;
9836;SDS011;4957;51.412;6.724;2023-01-08T17:18:18;6.77;;;2.50;;
9836;SDS011;4957;51.412;6.724;2023-01-08T17:20:48;6.57;;;2.17;;
9836;SDS011;4957;51.412;6.724;2023-01-08T17:23:20;1.70;;;1.00;;
9836;SDS011;4957;51.412;6.724;2023-01-08T17:25:51;4.13;;;1.13;;
9836;SDS011;4957;51.412;6.724;2023-01-08T17:28:20;4.30;;;1.20;;
9836;SDS011;4957;51.412;6.724;2023-01-08T17:31:07;1.47;;;1.00;;
9836;SDS011;4957;51.412;6.724;2023-01-08T17:33:49;2.70;;;1.20;;
9836;SDS011;4957;51.412;6.724;2023-01-08T17:36:22;1.87;;;1.23;;
9836;SDS011;4957;51.412;6.724;2023-01-08T17:38:53;2.83;;;1.23;;
9836;SDS011;4957;51.412;6.724;2023-01-08T17:41:20;1.83;;;0.90;;
9836;SDS011;4957;51.412;6.724;2023-01-08T17:44:05;2.00;;;1.30;;
9836;SDS011;4957;51.412;6.724;2023-01-08T17:49:32;4.10;;;1.03;;
9836;SDS011;4957;51.412;6.724;2023-01-08T17:52:00;3.17;;;1.03;;
9836;SDS011;4957;51.412;6.724;2023-01-08T17:54:47;2.67;;;1.30;;
9836;SDS011;4957;51.412;6.724;2023-01-08T17:57:19;2.57;;;0.97;;
9836;SDS011;4957;51.412;6.724;2023-01-08T18:00:05;1.77;;;0.97;;
9836;SDS011;4957;51.412;6.724;2023-01-08T18:02:32;3.77;;;1.20;;